Time;durP1;ratioP1;P1;durP2;ratioP2;P2;SDS_P1;SDS_P2;PMS_P1;PMS_P2;Temp;Humidity;BMP_temperature;BMP_pressure;BME280_temperature;BME280_humidity;BME280_pressure;Samples;Min_cycle;Max_cycle;Signal;HPM_P1;HPM_P2
2022/11/05 00:10:51;;;;;;;;;;;;;;;11.09;63.10;99402.34;3138989;28;19925;-72
2022/11/05 00:17:51;;;;;;;;;;;;;;;11.13;62.85;99405.63;3132426;28;19929;-72
2022/11/05 00:19:23;;;;;;;;;;;;;;;11.13;62.83;99405.63;3132494;28;19994;-72
2022/11/05 00:20:54;;;;;;;;;;;;;;;11.13;62.88;99405.63;3132649;28;19932;-72
2022/11/05 00:26:05;;;;;;;;;;;;;;;11.07;63.26;99400.75;3137529;28;20402;-72
2022/11/05 00:27:38;;;;;;;;;;;;;;;11.06;63.41;99402.53;3138444;28;19983;-72
2022/11/05 00:29:10;;;;;;;;;;;;;;;11.06;63.28;99399.03;3131694;28;20448;-72
2022/11/05 00:30:41;;;;;;;;;;;;;;;11.06;63.46;99404.25;3141491;28;20367;-71
2022/11/05 00:32:12;;;;;;;;;;;;;;;11.05;63.16;99402.59;3131564;28;19921;-71
2022/11/05 00:33:43;;;;;;;;;;;;;;;11.03;63.43;99407.91;3131581;28;20058;-72
2022/11/05 00:35:14;;;;;;;;;;;;;;;11.04;63.38;99395.69;3131454;28;19929;-72
2022/11/05 00:36:46;;;;;;;;;;;;;;;11.03;63.69;99396.59;3137627;28;20007;-72
2022/11/05 00:38:18;;;;;;;;;;;;;;;11.01;63.74;99399.31;3138776;28;20422;-71
2022/11/05 00:39:48;;;;;;;;;;;;;;;11.01;63.48;99398.47;3139394;28;19925;-71
2022/11/05 00:41:20;;;;;;;;;;;;;;;11.01;63.70;99395.88;3135207;28;19921;-72
2022/11/05 00:46:31;;;;;;;;;;;;;;;11.03;63.60;99394.00;3135019;28;20406;-71
2022/11/05 00:49:51;;;;;;;;;;;;;;;11.01;63.67;99398.47;3134813;28;20371;-71
2022/11/05 00:51:22;;;;;;;;;;;;;;;11.01;63.73;99395.88;3134946;28;20011;-71
2022/11/05 00:52:54;;;;;;;;;;;;;;;11.00;63.64;99400.22;3134705;28;20353;-71
2022/11/05 00:54:26;;;;;;;;;;;;;;;11.01;63.66;99401.06;3128266;28;20031;-72
2022/11/05 00:55:59;;;;;;;;;;;;;;;10.99;63.97;99405.53;3125272;28;19931;-71
2022/11/05 00:57:29;;;;;;;;;;;;;;;10.98;63.88;99396.03;3125739;28;19924;-71
2022/11/05 00:59:02;;;;;;;;;;;;;;;10.94;64.19;99390.13;3129532;28;20396;-71
2022/11/05 01:00:35;;;;;;;;;;;;;;;10.92;64.17;99392.00;3131134;28;20716;-71
2022/11/05 01:02:07;;;;;;;;;;;;;;;10.91;64.52;99392.88;3125971;28;19959;-71
2022/11/05 01:03:39;;;;;;;;;;;;;;;10.89;64.45;99394.75;3127967;28;19972;-72
2022/11/05 01:05:10;;;;;;;;;;;;;;;10.86;64.86;99389.72;3134890;28;19924;-71
2022/11/05 01:06:42;;;;;;;;;;;;;;;10.82;65.15;99386.41;3125186;28;20275;-71
2022/11/05 01:08:14;;;;;;;;;;;;;;;10.79;65.05;99386.56;3125572;28;20427;-70
2022/11/05 01:09:45;;;;;;;;;;;;;;;10.78;65.25;99392.69;3125712;28;19925;-71
2022/11/05 01:11:31;;;;;;;;;;;;;;;10.75;65.32;99386.81;3124274;28;20469;-71
2022/11/05 01:13:02;;;;;;;;;;;;;;;10.70;65.87;99382.69;3125954;28;20068;-71
2022/11/05 01:14:35;;;;;;;;;;;;;;;10.68;66.04;99383.69;3130233;28;20312;-71
2022/11/05 01:16:08;;;;;;;;;;;;;;;10.66;65.96;99382.94;3128439;28;20377;-71
2022/11/05 01:17:39;;;;;;;;;;;;;;;10.50;65.93;99353.41;3125856;28;20015;-71
2022/11/05 01:19:11;;;;;;;;;;;;;;;10.65;66.01;99379.50;3124792;28;20012;-71
2022/11/05 01:20:43;;;;;;;;;;;;;;;10.63;66.26;99380.50;3125086;28;19928;-70
2022/11/05 01:22:14;;;;;;;;;;;;;;;10.60;66.46;99385.84;3125855;28;20258;-71
2022/11/05 01:23:46;;;;;;;;;;;;;;;10.57;66.95;99391.22;3136372;28;20365;-69
2022/11/05 01:25:17;;;;;;;;;;;;;;;10.33;66.84;99347.31;3133373;28;19943;-70
2022/11/05 01:26:48;;;;;;;;;;;;;;;10.50;66.97;99375.09;3125162;28;19973;-70
2022/11/05 01:28:20;;;;;;;;;;;;;;;10.49;67.30;99368.19;3124701;28;20470;-71
2022/11/05 01:29:52;;;;;;;;;;;;;;;10.48;67.37;99369.94;3130827;28;19924;-71
2022/11/05 01:31:24;;;;;;;;;;;;;;;10.47;67.17;99370.03;3134012;28;20232;-70
2022/11/05 01:32:56;;;;;;;;;;;;;;;10.44;67.25;99359.75;3130078;28;19974;-70
2022/11/05 01:34:27;;;;;;;;;;;;;;;10.42;67.16;99356.41;3124963;28;19964;-71
2022/11/05 01:35:59;;;;;;;;;;;;;;;10.41;67.53;99349.50;3127078;28;19924;-70
2022/11/05 01:37:30;;;;;;;;;;;;;;;10.40;67.16;99346.06;3136879;28;20154;-70
2022/11/05 01:39:02;;;;;;;;;;;;;;;10.41;67.10;99345.16;3130410;28;19924;-70
2022/11/05 01:40:33;;;;;;;;;;;;;;;10.44;67.00;99349.34;3126568;28;20634;-70
2022/11/05 01:42:05;;;;;;;;;;;;;;;10.45;66.77;99346.66;3123997;28;19928;-70
2022/11/05 01:43:45;;;;;;;;;;;;;;;10.46;66.64;99352.72;3124141;28;19934;-70
2022/11/05 01:45:20;;;;;;;;;;;;;;;10.47;66.47;99352.66;3124435;28;19970;-71
2022/11/05 01:46:51;;;;;;;;;;;;;;;10.46;66.58;99348.34;3123987;28;19936;-70
2022/11/05 01:48:26;;;;;;;;;;;;;;;10.45;66.74;99344.06;3126511;28;20115;-70
2022/11/05 01:49:58;;;;;;;;;;;;;;;10.44;66.40;99345.00;3124513;28;20325;-70
2022/11/05 01:51:30;;;;;;;;;;;;;;;10.45;66.17;99346.66;3123650;28;20218;-69
2022/11/05 01:53:04;;;;;;;;;;;;;;;10.45;66.33;99345.84;3123976;28;20672;-69
2022/11/05 01:54:36;;;;;;;;;;;;;;;10.44;66.15;99341.53;3125349;28;20008;-69
2022/11/05 01:56:09;;;;;;;;;;;;;;;10.45;66.08;99340.63;3123212;28;19928;-69
2022/11/05 01:57:41;;;;;;;;;;;;;;;10.44;65.91;99337.19;3124540;28;19931;-71
2022/11/05 01:59:15;;;;;;;;;;;;;;;10.45;66.21;99336.25;3129542;28;19932;-68
2022/11/05 02:00:48;;;;;;;;;;;;;;;10.45;65.84;99338.03;3127672;28;20382;-69
2022/11/05 02:02:20;;;;;;;;;;;;;;;10.46;66.01;99342.31;3124187;28;19935;-69
2022/11/05 02:03:53;;;;;;;;;;;;;;;10.46;65.85;99342.31;3124119;28;19938;-69
2022/11/05 02:05:24;;;;;;;;;;;;;;;10.47;65.71;99337.03;3123786;28;19924;-69
2022/11/05 02:06:56;;;;;;;;;;;;;;;10.49;65.59;99342.13;3123569;28;20383;-69
2022/11/05 02:08:35;;;;;;;;;;;;;;;10.51;65.39;99335.09;3122870;28;20445;-69
2022/11/05 02:10:08;;;;;;;;;;;;;;;10.52;65.10;99331.56;3123049;28;19960;-69
2022/11/05 02:11:39;;;;;;;;;;;;;;;10.53;65.31;99327.19;3123362;28;19925;-69
2022/11/05 02:13:11;;;;;;;;;;;;;;;10.53;65.05;99322.00;3135626;28;20087;-69
2022/11/05 02:14:43;;;;;;;;;;;;;;;10.51;65.24;99329.06;3132174;28;20421;-69
2022/11/05 02:16:22;;;;;;;;;;;;;;;10.53;65.20;99330.66;3126433;28;19925;-69
2022/11/05 02:18:03;;;;;;;;;;;;;;;10.53;65.16;99324.59;3124288;28;19925;-69
2022/11/05 02:20:00;;;;;;;;;;;;;;;10.51;65.47;99327.28;3126410;28;20003;-69
2022/11/05 02:21:50;;;;;;;;;;;;;;;10.49;65.35;99329.13;3124364;28;20471;-69
2022/11/05 02:23:49;;;;;;;;;;;;;;;10.46;65.30;99327.53;3124646;28;20290;-68
2022/11/05 02:25:31;;;;;;;;;;;;;;;10.46;65.38;99324.91;3122896;28;20006;-69
2022/11/05 02:27:11;;;;;;;;;;;;;;;10.46;65.18;99324.06;3123029;28;20438;-69
2022/11/05 02:28:58;;;;;;;;;;;;;;;10.45;65.39;99320.63;3122668;28;20515;-69
2022/11/05 02:30:36;;;;;;;;;;;;;;;10.44;65.39;99323.31;3132099;28;20440;-71
2022/11/05 02:32:12;;;;;;;;;;;;;;;10.42;65.20;99322.56;3128044;28;19924;-71
2022/11/05 02:33:55;;;;;;;;;;;;;;;10.43;65.20;99326.84;3123316;28;19935;-70
2022/11/05 02:35:37;;;;;;;;;;;;;;;10.42;64.98;99323.41;3083170;28;1193657;-70
2022/11/05 02:37:12;;;;;;;;;;;;;;;10.43;65.00;99332.06;3134562;28;20420;-71
2022/11/05 02:38:49;;;;;;;;;;;;;;;10.43;64.96;99327.69;3130136;28;19925;-71
2022/11/05 02:40:23;;;;;;;;;;;;;;;10.43;64.99;99334.66;3127936;28;20389;-71
2022/11/05 02:42:00;;;;;;;;;;;;;;;10.41;65.53;99326.06;3123375;28;19929;-70
2022/11/05 02:43:35;;;;;;;;;;;;;;;10.35;65.49;99322.06;3123464;28;19924;-71
2022/11/05 02:45:12;;;;;;;;;;;;;;;10.34;65.52;99328.16;3123330;28;19948;-71
2022/11/05 02:46:51;;;;;;;;;;;;;;;10.32;65.51;99323.94;3122888;28;19963;-71
2022/11/05 02:48:26;;;;;;;;;;;;;;;10.31;65.38;99323.13;3125184;28;20435;-71
2022/11/05 02:50:03;;;;;;;;;;;;;;;10.30;65.63;99320.59;3127483;28;20002;-71
2022/11/05 02:51:37;;;;;;;;;;;;;;;10.28;65.80;99322.44;3132461;28;20022;-69
2022/11/05 02:53:11;;;;;;;;;;;;;;;10.23;65.86;99318.28;3132646;28;20011;-70
2022/11/05 02:54:45;;;;;;;;;;;;;;;10.20;65.74;99331.47;3132853;28;19920;-69
2022/11/05 02:56:20;;;;;;;;;;;;;;;10.16;66.25;99329.91;3135841;28;20435;-69
2022/11/05 02:57:52;;;;;;;;;;;;;;;10.14;66.31;99329.16;3132339;28;20321;-69
2022/11/05 02:59:24;;;;;;;;;;;;;;;10.12;66.27;99327.56;3139657;28;19926;-70
2022/11/05 03:00:54;;;;;;;;;;;;;;;10.12;65.88;99335.38;3135468;28;19932;-69
2022/11/05 03:02:28;;;;;;;;;;;;;;;10.11;66.40;99331.06;3132404;28;20429;-70
2022/11/05 03:03:59;;;;;;;;;;;;;;;10.07;66.44;99332.16;3132459;28;19932;-70
2022/11/05 03:05:36;;;;;;;;;;;;;;;10.05;66.36;99334.81;3131740;28;20349;-69
2022/11/05 03:07:22;;;;;;;;;;;;;;;10.05;66.37;99337.41;3132176;28;19950;-69
2022/11/05 03:09:03;;;;;;;;;;;;;;;10.04;66.26;99330.53;3132207;28;20412;-68
2022/11/05 03:10:42;;;;;;;;;;;;;;;10.03;66.36;99340.13;3132253;28;19924;-69
2022/11/05 03:12:20;;;;;;;;;;;;;;;10.05;66.06;99334.81;3132300;28;19925;-69
2022/11/05 03:13:53;;;;;;;;;;;;;;;10.05;66.17;99342.63;3132443;28;19925;-69
2022/11/05 03:15:33;;;;;;;;;;;;;;;10.07;66.31;99342.56;3141725;28;20367;-69
2022/11/05 03:17:07;;;;;;;;;;;;;;;10.07;66.00;99338.19;3132942;28;19925;-69
2022/11/05 03:18:42;;;;;;;;;;;;;;;10.08;66.10;99336.44;3132171;28;20071;-69
2022/11/05 03:20:17;;;;;;;;;;;;;;;10.08;65.66;99332.06;3132162;28;19920;-69
2022/11/05 03:21:53;;;;;;;;;;;;;;;10.08;65.80;99329.47;3132449;28;19925;-69
2022/11/05 03:23:27;;;;;;;;;;;;;;;10.08;66.02;99329.47;3133322;28;19967;-69
2022/11/05 03:25:02;;;;;;;;;;;;;;;10.08;65.93;99329.47;3132461;28;19958;-69
2022/11/05 03:26:37;;;;;;;;;;;;;;;10.07;65.67;99340.78;3133135;28;19921;-69
2022/11/05 03:28:09;;;;;;;;;;;;;;;10.06;66.30;99333.91;3132982;28;20317;-70
2022/11/05 03:29:43;;;;;;;;;;;;;;;10.01;66.52;99336.72;3137266;28;19935;-70
2022/11/05 03:31:16;;;;;;;;;;;;;;;9.96;66.62;99322.28;3138562;28;19925;-69
2022/11/05 03:32:48;;;;;;;;;;;;;;;9.91;67.17;99324.25;3132979;28;19921;-69
2022/11/05 03:34:25;;;;;;;;;;;;;;;9.86;67.37;99337.50;3134890;28;19927;-70
2022/11/05 03:35:58;;;;;;;;;;;;;;;9.78;67.76;99332.66;3132565;28;19974;-69
2022/11/05 03:37:32;;;;;;;;;;;;;;;9.72;68.31;99335.56;3145232;28;19920;-70
2022/11/05 03:39:06;;;;;;;;;;;;;;;9.68;68.26;99336.66;3139202;28;20437;-70
2022/11/05 03:40:38;;;;;;;;;;;;;;;9.64;68.74;99337.69;3135017;28;19921;-70
2022/11/05 03:42:12;;;;;;;;;;;;;;;9.60;68.93;99335.34;3132864;28;19924;-71
2022/11/05 03:43:46;;;;;;;;;;;;;;;9.58;68.65;99332.81;3132759;28;19928;-71
2022/11/05 03:45:21;;;;;;;;;;;;;;;9.59;68.50;99331.91;3133119;28;19951;-71
2022/11/05 03:46:56;;;;;;;;;;;;;;;9.59;68.43;99326.72;3132954;28;19928;-71
2022/11/05 03:48:30;;;;;;;;;;;;;;;9.61;68.30;99326.63;3135013;28;20250;-71
2022/11/05 03:50:08;;;;;;;;;;;;;;;9.62;67.98;99326.56;3132939;28;19920;-70
2022/11/05 03:51:43;;;;;;;;;;;;;;;9.60;68.34;99330.97;3132583;28;19982;-70
2022/11/05 03:53:17;;;;;;;;;;;;;;;9.58;68.33;99327.59;3139953;28;19928;-71
2022/11/05 03:54:48;;;;;;;;;;;;;;;9.54;68.39;99324.31;3132736;28;20346;-70
2022/11/05 03:56:23;;;;;;;;;;;;;;;9.55;68.41;99325.16;3131782;28;20375;-70
2022/11/05 03:57:55;;;;;;;;;;;;;;;9.55;68.42;99325.16;3137682;28;20301;-70
2022/11/05 03:59:28;;;;;;;;;;;;;;;9.54;68.37;99324.31;3137256;28;19935;-69
2022/11/05 04:01:01;;;;;;;;;;;;;;;9.53;68.56;99327.00;3132625;28;20402;-69
2022/11/05 04:02:33;;;;;;;;;;;;;;;9.53;68.36;99321.81;3132460;28;19939;-69
2022/11/05 04:04:05;;;;;;;;;;;;;;;9.53;68.44;99325.25;3132443;28;20011;-69
2022/11/05 04:05:38;;;;;;;;;;;;;;;9.53;68.46;99327.00;3132480;28;19990;-71
2022/11/05 04:14:26;;;;;;;;;;;;;;;9.39;69.45;99321.63;3133209;28;19921;-69
2022/11/05 04:17:47;;;;;;;;;;;;;;;9.30;69.96;99330.69;3135941;28;19924;-69
2022/11/05 04:24:07;;;;;;;;;;;;;;;9.26;69.87;99319.63;3136079;28;19990;-69
2022/11/05 04:24:49;;;;;;;;;;;;;;;9.16;70.61;99336.53;3134992;28;19946;-70
2022/11/05 04:26:22;;;;;;;;;;;;;;;9.16;70.51;99330.50;3134930;28;20258;-70
2022/11/05 04:27:58;;;;;;;;;;;;;;;9.16;70.22;99338.28;3133708;28;20377;-69
2022/11/05 04:31:17;;;;;;;;;;;;;;;9.15;70.70;99337.47;3132215;28;19920;-70
2022/11/05 04:32:56;;;;;;;;;;;;;;;9.11;70.53;99334.16;3132701;28;20016;-70
2022/11/05 04:34:28;;;;;;;;;;;;;;;9.09;70.70;99340.34;3132473;28;19924;-70
2022/11/05 04:35:59;;;;;;;;;;;;;;;9.09;70.31;99346.38;3131843;28;19924;-71
2022/11/05 04:37:31;;;;;;;;;;;;;;;9.10;70.38;99347.22;3137994;28;19952;-66
2022/11/05 04:39:03;;;;;;;;;;;;;;;9.09;70.56;99350.72;3136010;28;20407;-69
2022/11/05 04:40:35;;;;;;;;;;;;;;;9.11;70.45;99348.91;3139613;28;19959;-69
2022/11/05 04:42:06;;;;;;;;;;;;;;;9.15;69.98;99360.00;3138489;28;19981;-68
2022/11/05 04:43:38;;;;;;;;;;;;;;;9.15;69.95;99357.41;3127098;28;20500;-70
2022/11/05 04:45:10;;;;;;;;;;;;;;;9.14;70.16;99358.28;3127579;28;20385;-74
2022/11/05 04:46:42;;;;;;;;;;;;;;;8.88;70.05;99324.84;3127325;28;19936;-71
2022/11/05 04:48:23;;;;;;;;;;;;;;;9.14;69.89;99366.09;3131723;28;20014;-69
2022/11/05 04:50:04;;;;;;;;;;;;;;;9.14;70.08;99363.50;3137553;28;19928;-66
2022/11/05 04:52:06;;;;;;;;;;;;;;;9.15;70.44;99366.03;3139713;28;20401;-66
2022/11/05 04:55:44;;;;;;;;;;;;;;;9.22;70.16;99364.81;3136608;28;19924;-67
2022/11/05 04:57:15;;;;;;;;;;;;;;;9.25;70.12;99366.44;3129870;28;19978;-67
2022/11/05 04:58:47;;;;;;;;;;;;;;;9.28;69.67;99364.53;3125942;28;20306;-67
2022/11/05 05:00:19;;;;;;;;;;;;;;;9.31;69.88;99368.75;3121803;28;19943;-66
2022/11/05 05:01:51;;;;;;;;;;;;;;;9.32;69.36;99371.28;3121787;28;19978;-67
2022/11/05 05:03:23;;;;;;;;;;;;;;;9.33;69.24;99372.97;3123396;28;19979;-68
2022/11/05 05:04:55;;;;;;;;;;;;;;;9.32;69.25;99381.69;3124281;28;20255;-68
2022/11/05 05:06:27;;;;;;;;;;;;;;;9.31;69.25;99374.78;3123339;28;20036;-68
2022/11/05 05:08:01;;;;;;;;;;;;;;;9.30;69.09;99390.47;3123933;28;19987;-68
2022/11/05 05:09:32;;;;;;;;;;;;;;;9.26;69.19;99391.53;3122500;28;19928;-67
2022/11/05 05:11:07;;;;;;;;;;;;;;;9.22;69.17;99388.22;3124675;28;19931;-70
2022/11/05 05:12:39;;;;;;;;;;;;;;;9.19;69.14;99380.56;3122615;28;19947;-70
2022/11/05 05:14:09;;;;;;;;;;;;;;;9.15;69.00;99391.19;3122292;28;19932;-66
2022/11/05 05:15:41;;;;;;;;;;;;;;;9.12;69.34;99384.34;3123796;28;19931;-68
2022/11/05 05:17:13;;;;;;;;;;;;;;;9.09;69.04;99387.94;3122934;28;20722;-70
2022/11/05 05:18:45;;;;;;;;;;;;;;;9.06;69.03;99392.44;3124989;28;20495;-67
2022/11/05 05:22:05;;;;;;;;;;;;;;;9.02;69.30;99396.06;3122362;28;21209;-70
2022/11/05 05:23:37;;;;;;;;;;;;;;;8.99;69.18;99391.88;3122765;28;19932;-68
2022/11/05 05:25:09;;;;;;;;;;;;;;;9.00;69.37;99390.13;3123306;28;19928;-71
2022/11/05 05:26:43;;;;;;;;;;;;;;;8.86;69.36;99375.97;3121782;28;19932;-71
2022/11/05 05:28:15;;;;;;;;;;;;;;;9.00;69.20;99401.34;3122590;28;19925;-72
2022/11/05 05:29:47;;;;;;;;;;;;;;;9.01;69.34;99404.78;3123783;28;19971;-73
2022/11/05 05:31:19;;;;;;;;;;;;;;;9.02;69.10;99406.44;3127294;28;20015;-72
2022/11/05 05:32:50;;;;;;;;;;;;;;;9.02;69.31;99406.44;3123550;28;20388;-71
2022/11/05 05:34:22;;;;;;;;;;;;;;;9.02;69.43;99407.31;3126206;28;20452;-73
2022/11/05 05:35:56;;;;;;;;;;;;;;;9.02;69.34;99402.13;3126127;28;19931;-72
2022/11/05 05:37:28;;;;;;;;;;;;;;;9.05;69.46;99401.13;3124157;28;19924;-73
2022/11/05 05:39:00;;;;;;;;;;;;;;;9.10;69.23;99399.16;3125169;28;19936;-71
2022/11/05 05:40:31;;;;;;;;;;;;;;;9.15;69.16;99402.41;3124436;28;20388;-72
2022/11/05 05:42:04;;;;;;;;;;;;;;;9.22;69.18;99398.59;3127883;28;19925;-71
2022/11/05 05:43:36;;;;;;;;;;;;;;;9.29;69.01;99404.38;3123484;28;19963;-67
2022/11/05 05:45:08;;;;;;;;;;;;;;;9.36;69.01;99407.53;3123289;28;19924;-68
2022/11/05 05:46:40;;;;;;;;;;;;;;;9.42;68.79;99402.88;3123934;28;20722;-67
2022/11/05 05:48:11;;;;;;;;;;;;;;;9.47;68.59;99402.69;3127183;28;20329;-69
2022/11/05 05:49:43;;;;;;;;;;;;;;;9.52;68.78;99400.69;3124293;28;19954;-69
2022/11/05 05:51:14;;;;;;;;;;;;;;;9.60;68.59;99405.53;3124923;28;20007;-70
2022/11/05 05:52:45;;;;;;;;;;;;;;;9.69;68.23;99403.31;3124667;28;19929;-69
2022/11/05 05:54:17;;;;;;;;;;;;;;;9.76;68.28;99398.66;3123858;28;19963;-65
2022/11/05 05:55:49;;;;;;;;;;;;;;;9.85;68.38;99398.25;3124541;28;19974;-67
2022/11/05 05:57:22;;;;;;;;;;;;;;;9.96;68.09;99400.31;3128261;28;19972;-69
2022/11/05 05:58:54;;;;;;;;;;;;;;;10.07;68.22;99399.78;3124723;28;19925;-66
2022/11/05 06:00:24;;;;;;;;;;;;;;;10.16;68.00;99402.78;3124820;28;19928;-67
2022/11/05 06:01:56;;;;;;;;;;;;;;;10.09;67.85;99385.78;3124261;28;20030;-68
2022/11/05 06:03:27;;;;;;;;;;;;;;;10.39;67.78;99414.66;3124816;28;20456;-75
2022/11/05 06:04:58;;;;;;;;;;;;;;;10.51;67.67;99412.38;3136015;28;19947;-66
2022/11/05 06:06:30;;;;;;;;;;;;;;;10.65;67.32;99415.94;3124710;28;19974;-69
2022/11/05 06:08:02;;;;;;;;;;;;;;;10.82;67.05;99420.25;3134925;28;19924;-73
2022/11/05 06:09:34;;;;;;;;;;;;;;;11.03;66.89;99425.28;3133028;28;20360;-67
2022/11/05 06:11:06;;;;;;;;;;;;;;;11.26;66.42;99424.03;3132060;28;20420;-80
2022/11/05 06:12:39;;;;;;;;;;;;;;;11.51;65.95;99426.19;3124306;28;20377;-77
2022/11/05 06:14:11;;;;;;;;;;;;;;;11.79;65.51;99425.47;3124720;28;19924;-71
2022/11/05 06:15:43;;;;;;;;;;;;;;;12.06;64.96;99418.72;3124179;28;19987;-70
2022/11/05 06:17:15;;;;;;;;;;;;;;;12.35;64.35;99421.41;3124697;28;19925;-73
2022/11/05 06:18:47;;;;;;;;;;;;;;;12.66;63.54;99420.44;3124524;28;19924;-69
2022/11/05 06:20:19;;;;;;;;;;;;;;;13.01;62.99;99421.84;3124238;28;20390;-69
2022/11/05 06:21:50;;;;;;;;;;;;;;;13.34;62.22;99432.88;3124031;28;19925;-70
2022/11/05 06:23:21;;;;;;;;;;;;;;;13.67;61.52;99430.88;3124224;28;20025;-69
2022/11/05 06:24:53;;;;;;;;;;;;;;;13.99;60.75;99423.53;3123611;28;20015;-70
2022/11/05 06:26:24;;;;;;;;;;;;;;;14.28;60.46;99424.22;3124363;28;20019;-71
2022/11/05 06:27:58;;;;;;;;;;;;;;;14.59;60.33;99424.84;3130495;28;19928;-72
2022/11/05 06:29:29;;;;;;;;;;;;;;;14.93;59.83;99424.19;3123841;28;20487;-69
2022/11/05 06:31:01;;;;;;;;;;;;;;;15.28;59.27;99436.63;3123583;28;19933;-69
2022/11/05 06:32:33;;;;;;;;;;;;;;;15.60;59.14;99430.91;3123493;28;20309;-70
2022/11/05 06:34:04;;;;;;;;;;;;;;;15.96;58.41;99429.22;3123965;28;19934;-68
2022/11/05 06:35:36;;;;;;;;;;;;;;;16.32;57.90;99430.88;3123689;28;19937;-70
2022/11/05 06:37:08;;;;;;;;;;;;;;;16.68;57.54;99424.66;3129834;28;19936;-68
2022/11/05 06:38:40;;;;;;;;;;;;;;;17.03;56.68;99427.19;3128221;28;20436;-69
2022/11/05 06:40:11;;;;;;;;;;;;;;;17.35;56.23;99423.84;3126813;28;20346;-71
2022/11/05 06:41:43;;;;;;;;;;;;;;;17.59;55.68;99423.69;3130647;28;20498;-72
2022/11/05 06:43:16;;;;;;;;;;;;;;;17.74;55.12;99405.81;3130935;28;19924;-71
2022/11/05 06:44:47;;;;;;;;;;;;;;;18.14;54.25;99431.56;3124250;28;20209;-73
2022/11/05 06:46:19;;;;;;;;;;;;;;;18.27;53.29;99429.59;3124537;28;20357;-70
2022/11/05 06:48:01;;;;;;;;;;;;;;;18.40;53.01;99424.97;3127520;28;20352;-68
2022/11/05 06:49:31;;;;;;;;;;;;;;;18.67;52.99;99430.69;3123418;28;19925;-70
2022/11/05 06:51:04;;;;;;;;;;;;;;;18.81;52.35;99425.09;3123886;28;19932;-66
2022/11/05 06:52:36;;;;;;;;;;;;;;;18.86;51.67;99429.00;3133025;28;19924;-66
2022/11/05 06:54:08;;;;;;;;;;;;;;;18.91;51.57;99422.53;3125498;28;19924;-67
2022/11/05 06:55:40;;;;;;;;;;;;;;;19.08;51.55;99429.81;3123297;28;19925;-66
2022/11/05 06:57:12;;;;;;;;;;;;;;;19.29;51.09;99427.97;3130358;28;19979;-69
2022/11/05 06:58:44;;;;;;;;;;;;;;;19.51;50.74;99426.06;3133247;28;20309;-69
2022/11/05 07:00:16;;;;;;;;;;;;;;;19.77;50.53;99429.91;3132676;28;19924;-69
2022/11/05 07:01:48;;;;;;;;;;;;;;;20.11;50.16;99426.84;3133311;28;20000;-69
2022/11/05 07:03:20;;;;;;;;;;;;;;;20.47;49.50;99421.84;3139107;28;20352;-72
2022/11/05 07:04:51;;;;;;;;;;;;;;;20.65;48.21;99424.63;3143520;28;19970;-68
2022/11/05 07:06:23;;;;;;;;;;;;;;;20.64;46.85;99423.75;3133147;28;19924;-69
2022/11/05 07:07:54;;;;;;;;;;;;;;;20.65;46.61;99428.09;3141863;28;20372;-68
2022/11/05 07:09:26;;;;;;;;;;;;;;;20.73;46.56;99430.00;3139884;28;19920;-67
2022/11/05 07:10:58;;;;;;;;;;;;;;;20.80;45.67;99425.00;3141355;28;19921;-69
2022/11/05 07:12:29;;;;;;;;;;;;;;;20.73;45.33;99432.66;3132656;28;20368;-68
2022/11/05 07:14:02;;;;;;;;;;;;;;;20.77;45.51;99426.09;3133214;28;19998;-69
2022/11/05 07:15:34;;;;;;;;;;;;;;;20.93;45.48;99425.50;3133029;28;19929;-68
2022/11/05 07:17:06;;;;;;;;;;;;;;;21.05;45.08;99424.31;3133150;28;19920;-67
2022/11/05 07:18:37;;;;;;;;;;;;;;;21.22;44.74;99419.25;3132991;28;19943;-68
2022/11/05 07:20:10;;;;;;;;;;;;;;;21.38;44.43;99422.13;3132811;28;19924;-67
2022/11/05 07:21:41;;;;;;;;;;;;;;;21.49;43.86;99424.56;3133114;28;20000;-66
2022/11/05 07:23:14;;;;;;;;;;;;;;;21.64;43.82;99414.28;3135197;28;19921;-68
2022/11/05 07:24:46;;;;;;;;;;;;;;;21.97;43.86;99412.78;3132805;28;19921;-67
2022/11/05 07:26:17;;;;;;;;;;;;;;;22.32;43.79;99405.84;3132812;28;19936;-68
2022/11/05 07:27:49;;;;;;;;;;;;;;;22.66;43.01;99413.06;3132889;28;19921;-66
2022/11/05 07:29:22;;;;;;;;;;;;;;;22.92;41.98;99408.56;3133010;28;20440;-68
2022/11/05 07:30:54;;;;;;;;;;;;;;;23.11;42.06;99401.38;3132795;28;19979;-68
2022/11/05 07:32:25;;;;;;;;;;;;;;;23.18;41.70;99399.72;3132717;28;19979;-68
2022/11/05 07:33:58;;;;;;;;;;;;;;;23.37;41.72;99410.09;3133132;28;19920;-67
2022/11/05 07:35:29;;;;;;;;;;;;;;;23.59;41.38;99399.84;3142908;28;19924;-69
2022/11/05 07:37:01;;;;;;;;;;;;;;;23.74;41.08;99389.44;3141009;28;19920;-69
2022/11/05 07:38:32;;;;;;;;;;;;;;;23.84;40.86;99390.97;3138043;28;20614;-69
2022/11/05 07:40:04;;;;;;;;;;;;;;;23.93;41.06;99377.66;3138618;28;20082;-70
2022/11/05 07:41:36;;;;;;;;;;;;;;;24.03;40.92;99370.38;3143430;28;19920;-69
2022/11/05 07:43:08;;;;;;;;;;;;;;;24.10;40.24;99374.00;3132745;28;19925;-69
2022/11/05 07:44:41;;;;;;;;;;;;;;;24.13;39.45;99373.69;3132881;28;19924;-70
2022/11/05 07:46:12;;;;;;;;;;;;;;;24.07;39.41;99380.50;3132075;28;19970;-71
2022/11/05 07:47:47;;;;;;;;;;;;;;;24.02;38.92;99382.00;3132026;28;20329;-69
2022/11/05 07:49:19;;;;;;;;;;;;;;;24.00;39.10;99378.69;3143799;28;19924;-70
2022/11/05 07:50:51;;;;;;;;;;;;;;;24.16;39.15;99375.19;3133532;28;19931;-72
2022/11/05 07:52:23;;;;;;;;;;;;;;;24.15;38.55;99370.88;3137034;28;20443;-70
2022/11/05 07:53:54;;;;;;;;;;;;;;;24.13;38.63;99368.34;3135959;28;19978;-67
2022/11/05 07:55:26;;;;;;;;;;;;;;;24.33;38.62;99373.34;3137221;28;20357;-65
2022/11/05 07:56:56;;;;;;;;;;;;;;;24.48;38.56;99372.50;3138826;28;20318;-66
2022/11/05 07:58:28;;;;;;;;;;;;;;;24.64;38.70;99369.00;3131626;28;19931;-66
2022/11/05 08:00:01;;;;;;;;;;;;;;;24.85;38.47;99363.09;3131556;28;19924;-66
2022/11/05 08:01:33;;;;;;;;;;;;;;;25.01;38.00;99356.88;3131449;28;19975;-69
2022/11/05 08:03:05;;;;;;;;;;;;;;;25.23;37.51;99365.13;3132058;28;19935;-68
2022/11/05 08:04:39;;;;;;;;;;;;;;;25.26;37.04;99367.44;3141301;28;19929;-73
2022/11/05 08:06:10;;;;;;;;;;;;;;;25.00;36.46;99365.88;3132974;28;19928;-70
2022/11/05 08:07:42;;;;;;;;;;;;;;;24.78;36.88;99355.97;3137168;28;20399;-69
2022/11/05 08:09:13;;;;;;;;;;;;;;;24.74;37.34;99360.81;3139876;28;20360;-69
2022/11/05 08:12:09;;;;;;;49.97;25.75;;;;;;;24.80;36.65;99364.63;3166839;27;20392;-69
2022/11/05 08:13:41;;;;;;;51.60;25.35;;;;;;;24.89;36.48;99355.59;3154880;28;20055;-69
2022/11/05 08:15:13;;;;;;;48.07;25.03;;;;;;;25.03;35.77;99357.53;3154344;28;20050;-72
2022/11/05 08:16:45;;;;;;;46.40;25.30;;;;;;;25.08;35.48;99365.00;3155099;28;20324;-69
2022/11/05 08:18:18;;;;;;;54.30;25.65;;;;;;;25.26;35.05;99360.31;3154223;28;20087;-66
2022/11/05 08:19:50;;;;;;;54.60;27.95;;;;;;;25.37;34.41;99361.72;3154442;28;20071;-64
2022/11/05 08:21:22;;;;;;;52.55;29.23;;;;;;;25.51;34.52;99355.66;3154151;28;20063;-65
2022/11/05 08:22:54;;;;;;;51.70;26.00;;;;;;;25.56;34.18;99358.63;3154217;28;20048;-68
2022/11/05 08:24:26;;;;;;;52.45;27.15;;;;;;;25.64;34.01;99363.91;3155151;28;20922;-75
2022/11/05 08:25:58;;;;;;;52.45;28.02;;;;;;;25.73;33.75;99361.16;3154992;28;20117;-76
2022/11/05 08:27:31;;;;;;;61.97;28.02;;;;;;;25.77;33.21;99359.81;3155479;28;20113;-77
2022/11/05 08:29:04;;;;;;;49.58;25.63;;;;;;;25.86;33.41;99359.59;3155239;28;20048;-75
2022/11/05 08:30:36;;;;;;;53.65;27.25;;;;;;;26.01;33.31;99365.00;3155388;28;20052;-77
2022/11/05 08:32:07;;;;;;;43.40;26.77;;;;;;;26.07;33.05;99360.78;3154842;28;20051;-75
2022/11/05 08:33:39;;;;;;;48.70;25.20;;;;;;;26.13;32.86;99356.56;3161898;28;20055;-74
2022/11/05 08:35:11;;;;;;;44.53;26.58;;;;;;;26.13;32.34;99356.56;3159892;28;20079;-76
2022/11/05 08:36:45;;;;;;;49.30;25.55;;;;;;;26.15;32.73;99360.72;3158012;28;20052;-78
2022/11/05 08:38:19;;;;;;;52.70;26.35;;;;;;;26.26;32.58;99364.75;3161951;28;20052;-76
2022/11/05 08:39:51;;;;;;;51.78;25.88;;;;;;;26.40;32.34;99366.63;3162647;28;20197;-76
2022/11/05 08:41:23;;;;;;;45.42;25.35;;;;;;;26.46;32.14;99359.75;3165895;28;20633;-71
2022/11/05 08:42:58;;;;;;;47.20;27.40;;;;;;;26.50;31.54;99358.38;3154744;28;20129;-67
2022/11/05 08:44:30;;;;;;;44.30;26.27;;;;;;;26.54;31.41;99360.53;3155017;28;20056;-70
2022/11/05 08:46:02;;;;;;;44.67;27.25;;;;;;;26.49;31.40;99357.56;3154792;28;20063;-70